sensor_id;sensor_type;location;lat;lon;timestamp;P1;durP1;ratioP1;P2;durP2;ratioP2
60993;SDS011;47611;54.932;73.338;2022-10-16T00:01:25;99.57;;;31.90;;
60993;SDS011;47611;54.932;73.338;2022-10-16T00:03:52;80.43;;;28.30;;
60993;SDS011;47611;54.932;73.338;2022-10-16T00:06:20;82.97;;;27.45;;
60993;SDS011;47611;54.932;73.338;2022-10-16T00:08:47;79.32;;;27.73;;
60993;SDS011;47611;54.932;73.338;2022-10-16T00:11:24;54.63;;;20.13;;
60993;SDS011;47611;54.932;73.338;2022-10-16T00:14:00;43.65;;;16.58;;
60993;SDS011;47611;54.932;73.338;2022-10-16T00:16:28;44.30;;;17.10;;
60993;SDS011;47611;54.932;73.338;2022-10-16T00:18:54;43.25;;;18.02;;
60993;SDS011;47611;54.932;73.338;2022-10-16T00:21:21;42.88;;;17.02;;
60993;SDS011;47611;54.932;73.338;2022-10-16T00:23:51;39.58;;;17.00;;
60993;SDS011;47611;54.932;73.338;2022-10-16T00:26:25;41.78;;;16.65;;
60993;SDS011;47611;54.932;73.338;2022-10-16T00:28:53;46.08;;;17.23;;
60993;SDS011;47611;54.932;73.338;2022-10-16T00:31:20;42.83;;;18.38;;
60993;SDS011;47611;54.932;73.338;2022-10-16T00:33:48;45.92;;;18.60;;
60993;SDS011;47611;54.932;73.338;2022-10-16T00:36:16;47.15;;;17.92;;
60993;SDS011;47611;54.932;73.338;2022-10-16T00:38:44;48.97;;;18.63;;
60993;SDS011;47611;54.932;73.338;2022-10-16T00:41:13;46.13;;;17.75;;
60993;SDS011;47611;54.932;73.338;2022-10-16T00:43:48;44.22;;;17.52;;
60993;SDS011;47611;54.932;73.338;2022-10-16T00:46:37;48.63;;;18.83;;
60993;SDS011;47611;54.932;73.338;2022-10-16T00:49:07;58.65;;;18.15;;
60993;SDS011;47611;54.932;73.338;2022-10-16T00:51:46;43.88;;;17.60;;
60993;SDS011;47611;54.932;73.338;2022-10-16T00:54:19;42.28;;;17.92;;
60993;SDS011;47611;54.932;73.338;2022-10-16T00:56:48;56.20;;;18.55;;
60993;SDS011;47611;54.932;73.338;2022-10-16T00:59:25;56.63;;;21.55;;
60993;SDS011;47611;54.932;73.338;2022-10-16T01:02:03;58.28;;;20.58;;
60993;SDS011;47611;54.932;73.338;2022-10-16T01:04:32;48.53;;;19.90;;
60993;SDS011;47611;54.932;73.338;2022-10-16T01:07:16;56.67;;;20.90;;
60993;SDS011;47611;54.932;73.338;2022-10-16T01:12:50;68.47;;;25.55;;
60993;SDS011;47611;54.932;73.338;2022-10-16T01:32:07;43.35;;;16.98;;
60993;SDS011;47611;54.932;73.338;2022-10-16T01:34:42;48.20;;;16.77;;
60993;SDS011;47611;54.932;73.338;2022-10-16T01:37:32;45.33;;;19.23;;
60993;SDS011;47611;54.932;73.338;2022-10-16T01:40:26;49.65;;;18.77;;
60993;SDS011;47611;54.932;73.338;2022-10-16T01:43:33;51.85;;;19.35;;
60993;SDS011;47611;54.932;73.338;2022-10-16T01:45:56;52.13;;;18.77;;
60993;SDS011;47611;54.932;73.338;2022-10-16T01:48:24;44.38;;;17.88;;
60993;SDS011;47611;54.932;73.338;2022-10-16T01:50:56;40.85;;;17.77;;
60993;SDS011;47611;54.932;73.338;2022-10-16T01:53:31;45.33;;;18.75;;
60993;SDS011;47611;54.932;73.338;2022-10-16T01:55:58;50.20;;;21.38;;
60993;SDS011;47611;54.932;73.338;2022-10-16T01:58:26;53.20;;;20.50;;
60993;SDS011;47611;54.932;73.338;2022-10-16T02:00:53;54.92;;;22.00;;
60993;SDS011;47611;54.932;73.338;2022-10-16T02:03:22;60.83;;;22.55;;
60993;SDS011;47611;54.932;73.338;2022-10-16T02:05:50;67.47;;;28.52;;
60993;SDS011;47611;54.932;73.338;2022-10-16T02:08:28;85.07;;;34.58;;
60993;SDS011;47611;54.932;73.338;2022-10-16T02:10:56;98.43;;;38.70;;
60993;SDS011;47611;54.932;73.338;2022-10-16T02:15:57;94.57;;;42.53;;
60993;SDS011;47611;54.932;73.338;2022-10-16T02:18:23;107.88;;;43.03;;
60993;SDS011;47611;54.932;73.338;2022-10-16T02:23:35;111.85;;;43.63;;
60993;SDS011;47611;54.932;73.338;2022-10-16T02:26:12;138.63;;;43.67;;
60993;SDS011;47611;54.932;73.338;2022-10-16T02:28:47;114.40;;;44.53;;
60993;SDS011;47611;54.932;73.338;2022-10-16T02:31:22;133.68;;;44.90;;
60993;SDS011;47611;54.932;73.338;2022-10-16T02:33:55;103.35;;;41.45;;
60993;SDS011;47611;54.932;73.338;2022-10-16T02:36:25;99.03;;;41.17;;
60993;SDS011;47611;54.932;73.338;2022-10-16T02:39:02;94.53;;;41.10;;
60993;SDS011;47611;54.932;73.338;2022-10-16T02:41:38;93.32;;;40.53;;
60993;SDS011;47611;54.932;73.338;2022-10-16T02:44:04;94.45;;;38.40;;
60993;SDS011;47611;54.932;73.338;2022-10-16T02:46:30;101.88;;;40.35;;
60993;SDS011;47611;54.932;73.338;2022-10-16T02:48:56;113.78;;;39.70;;
60993;SDS011;47611;54.932;73.338;2022-10-16T02:51:32;116.88;;;39.65;;
60993;SDS011;47611;54.932;73.338;2022-10-16T02:53:58;119.03;;;40.28;;
60993;SDS011;47611;54.932;73.338;2022-10-16T02:56:24;123.65;;;41.55;;
60993;SDS011;47611;54.932;73.338;2022-10-16T02:58:51;107.38;;;39.50;;
60993;SDS011;47611;54.932;73.338;2022-10-16T03:01:22;117.85;;;39.25;;
60993;SDS011;47611;54.932;73.338;2022-10-16T03:03:49;120.63;;;41.22;;
60993;SDS011;47611;54.932;73.338;2022-10-16T03:06:15;104.72;;;41.35;;
60993;SDS011;47611;54.932;73.338;2022-10-16T03:08:52;122.07;;;40.90;;
60993;SDS011;47611;54.932;73.338;2022-10-16T03:11:28;91.07;;;38.10;;
60993;SDS011;47611;54.932;73.338;2022-10-16T03:14:05;80.05;;;38.35;;
60993;SDS011;47611;54.932;73.338;2022-10-16T03:16:31;72.03;;;33.78;;
60993;SDS011;47611;54.932;73.338;2022-10-16T03:19:07;81.13;;;34.58;;
60993;SDS011;47611;54.932;73.338;2022-10-16T03:21:33;67.55;;;30.73;;
60993;SDS011;47611;54.932;73.338;2022-10-16T03:24:00;71.93;;;33.80;;
60993;SDS011;47611;54.932;73.338;2022-10-16T03:26:26;81.40;;;37.30;;
60993;SDS011;47611;54.932;73.338;2022-10-16T03:28:52;71.55;;;35.40;;
60993;SDS011;47611;54.932;73.338;2022-10-16T03:31:29;90.63;;;43.55;;
60993;SDS011;47611;54.932;73.338;2022-10-16T03:33:56;86.65;;;40.53;;
60993;SDS011;47611;54.932;73.338;2022-10-16T03:36:22;107.45;;;41.63;;
60993;SDS011;47611;54.932;73.338;2022-10-16T03:38:48;150.93;;;42.42;;
60993;SDS011;47611;54.932;73.338;2022-10-16T03:41:14;249.82;;;49.20;;
60993;SDS011;47611;54.932;73.338;2022-10-16T03:43:41;345.95;;;50.92;;
60993;SDS011;47611;54.932;73.338;2022-10-16T03:46:07;274.45;;;50.20;;
60993;SDS011;47611;54.932;73.338;2022-10-16T03:48:33;237.10;;;48.30;;
60993;SDS011;47611;54.932;73.338;2022-10-16T03:51:00;134.85;;;43.60;;
60993;SDS011;47611;54.932;73.338;2022-10-16T03:53:26;204.32;;;87.22;;
60993;SDS011;47611;54.932;73.338;2022-10-16T03:55:55;129.88;;;53.45;;
60993;SDS011;47611;54.932;73.338;2022-10-16T03:58:22;127.28;;;55.97;;
60993;SDS011;47611;54.932;73.338;2022-10-16T04:00:48;91.28;;;41.10;;
60993;SDS011;47611;54.932;73.338;2022-10-16T04:03:14;105.13;;;34.95;;
60993;SDS011;47611;54.932;73.338;2022-10-16T04:05:40;84.03;;;33.13;;
60993;SDS011;47611;54.932;73.338;2022-10-16T04:08:07;94.03;;;33.35;;
60993;SDS011;47611;54.932;73.338;2022-10-16T04:10:36;72.32;;;30.23;;
60993;SDS011;47611;54.932;73.338;2022-10-16T04:13:05;80.15;;;30.38;;
60993;SDS011;47611;54.932;73.338;2022-10-16T04:15:31;89.13;;;27.98;;
60993;SDS011;47611;54.932;73.338;2022-10-16T04:18:07;87.97;;;28.98;;
60993;SDS011;47611;54.932;73.338;2022-10-16T04:20:33;107.53;;;29.08;;
60993;SDS011;47611;54.932;73.338;2022-10-16T04:23:00;115.38;;;30.38;;
60993;SDS011;47611;54.932;73.338;2022-10-16T04:25:26;122.28;;;29.20;;
60993;SDS011;47611;54.932;73.338;2022-10-16T04:27:53;123.78;;;33.28;;
60993;SDS011;47611;54.932;73.338;2022-10-16T04:30:20;113.50;;;30.83;;
60993;SDS011;47611;54.932;73.338;2022-10-16T04:32:50;83.72;;;29.98;;
60993;SDS011;47611;54.932;73.338;2022-10-16T04:35:17;79.13;;;32.90;;
60993;SDS011;47611;54.932;73.338;2022-10-16T04:37:44;87.60;;;37.22;;
60993;SDS011;47611;54.932;73.338;2022-10-16T04:40:10;90.63;;;37.08;;
60993;SDS011;47611;54.932;73.338;2022-10-16T04:42:42;95.65;;;38.35;;
60993;SDS011;47611;54.932;73.338;2022-10-16T04:45:08;85.25;;;38.75;;
60993;SDS011;47611;54.932;73.338;2022-10-16T04:47:34;95.13;;;38.45;;
60993;SDS011;47611;54.932;73.338;2022-10-16T04:50:11;111.07;;;36.78;;
60993;SDS011;47611;54.932;73.338;2022-10-16T04:52:37;104.10;;;35.60;;
60993;SDS011;47611;54.932;73.338;2022-10-16T04:55:13;64.68;;;31.35;;
60993;SDS011;47611;54.932;73.338;2022-10-16T04:57:40;71.25;;;31.75;;
60993;SDS011;47611;54.932;73.338;2022-10-16T05:00:08;64.13;;;29.55;;
60993;SDS011;47611;54.932;73.338;2022-10-16T05:02:35;64.03;;;29.48;;
60993;SDS011;47611;54.932;73.338;2022-10-16T05:05:01;73.95;;;29.70;;
60993;SDS011;47611;54.932;73.338;2022-10-16T05:07:27;77.70;;;29.08;;
60993;SDS011;47611;54.932;73.338;2022-10-16T05:09:53;80.22;;;28.88;;
60993;SDS011;47611;54.932;73.338;2022-10-16T05:12:20;72.45;;;28.65;;
60993;SDS011;47611;54.932;73.338;2022-10-16T05:14:46;69.97;;;28.40;;
60993;SDS011;47611;54.932;73.338;2022-10-16T05:17:12;64.40;;;27.95;;
60993;SDS011;47611;54.932;73.338;2022-10-16T05:19:38;63.35;;;27.60;;
60993;SDS011;47611;54.932;73.338;2022-10-16T05:22:05;65.20;;;25.58;;
60993;SDS011;47611;54.932;73.338;2022-10-16T05:24:31;68.35;;;27.17;;
60993;SDS011;47611;54.932;73.338;2022-10-16T05:27:02;70.38;;;25.35;;
60993;SDS011;47611;54.932;73.338;2022-10-16T05:29:32;61.67;;;24.83;;
60993;SDS011;47611;54.932;73.338;2022-10-16T05:31:58;73.93;;;25.58;;
60993;SDS011;47611;54.932;73.338;2022-10-16T05:34:34;76.85;;;24.98;;
60993;SDS011;47611;54.932;73.338;2022-10-16T05:37:00;74.25;;;26.05;;
60993;SDS011;47611;54.932;73.338;2022-10-16T05:39:26;58.05;;;24.45;;
60993;SDS011;47611;54.932;73.338;2022-10-16T05:41:53;73.43;;;29.73;;
60993;SDS011;47611;54.932;73.338;2022-10-16T05:44:19;74.70;;;28.77;;
60993;SDS011;47611;54.932;73.338;2022-10-16T05:46:46;65.65;;;29.02;;
60993;SDS011;47611;54.932;73.338;2022-10-16T05:49:12;61.08;;;28.02;;
60993;SDS011;47611;54.932;73.338;2022-10-16T05:51:38;77.18;;;28.30;;
60993;SDS011;47611;54.932;73.338;2022-10-16T05:54:04;63.70;;;29.08;;
60993;SDS011;47611;54.932;73.338;2022-10-16T05:56:31;65.85;;;27.63;;
60993;SDS011;47611;54.932;73.338;2022-10-16T05:58:58;85.43;;;28.73;;
60993;SDS011;47611;54.932;73.338;2022-10-16T06:01:25;88.85;;;27.23;;
60993;SDS011;47611;54.932;73.338;2022-10-16T06:03:51;85.75;;;26.00;;
60993;SDS011;47611;54.932;73.338;2022-10-16T06:06:19;74.32;;;21.98;;
60993;SDS011;47611;54.932;73.338;2022-10-16T06:08:47;70.13;;;20.88;;
60993;SDS011;47611;54.932;73.338;2022-10-16T06:11:24;47.15;;;21.35;;
60993;SDS011;47611;54.932;73.338;2022-10-16T06:13:53;78.70;;;25.45;;
60993;SDS011;47611;54.932;73.338;2022-10-16T06:16:23;63.40;;;22.85;;
60993;SDS011;47611;54.932;73.338;2022-10-16T06:18:51;70.45;;;22.15;;
60993;SDS011;47611;54.932;73.338;2022-10-16T06:21:19;45.95;;;19.88;;
60993;SDS011;47611;54.932;73.338;2022-10-16T06:23:48;62.30;;;23.85;;
60993;SDS011;47611;54.932;73.338;2022-10-16T06:26:23;54.75;;;22.13;;
60993;SDS011;47611;54.932;73.338;2022-10-16T06:28:51;75.90;;;23.58;;
60993;SDS011;47611;54.932;73.338;2022-10-16T06:31:19;71.25;;;22.33;;
60993;SDS011;47611;54.932;73.338;2022-10-16T06:33:50;70.53;;;21.70;;
60993;SDS011;47611;54.932;73.338;2022-10-16T06:36:17;80.50;;;21.05;;
60993;SDS011;47611;54.932;73.338;2022-10-16T06:38:44;64.85;;;20.92;;
60993;SDS011;47611;54.932;73.338;2022-10-16T06:41:14;66.32;;;20.48;;
60993;SDS011;47611;54.932;73.338;2022-10-16T06:43:42;52.53;;;27.05;;
60993;SDS011;47611;54.932;73.338;2022-10-16T06:46:11;47.28;;;19.35;;
60993;SDS011;47611;54.932;73.338;2022-10-16T06:48:43;39.33;;;18.05;;
60993;SDS011;47611;54.932;73.338;2022-10-16T06:51:13;48.80;;;20.77;;
60993;SDS011;47611;54.932;73.338;2022-10-16T06:53:42;49.42;;;23.63;;
60993;SDS011;47611;54.932;73.338;2022-10-16T06:58:46;48.85;;;19.38;;
60993;SDS011;47611;54.932;73.338;2022-10-16T07:01:18;41.60;;;17.63;;
60993;SDS011;47611;54.932;73.338;2022-10-16T07:03:46;43.58;;;17.95;;
60993;SDS011;47611;54.932;73.338;2022-10-16T07:06:13;34.60;;;14.13;;
60993;SDS011;47611;54.932;73.338;2022-10-16T07:08:43;24.50;;;12.55;;
60993;SDS011;47611;54.932;73.338;2022-10-16T07:11:11;24.90;;;11.65;;
60993;SDS011;47611;54.932;73.338;2022-10-16T07:13:41;20.40;;;9.10;;
60993;SDS011;47611;54.932;73.338;2022-10-16T07:16:09;22.77;;;9.65;;
60993;SDS011;47611;54.932;73.338;2022-10-16T07:18:36;19.67;;;7.97;;
60993;SDS011;47611;54.932;73.338;2022-10-16T07:21:05;27.67;;;12.43;;
60993;SDS011;47611;54.932;73.338;2022-10-16T07:23:33;18.98;;;8.90;;
60993;SDS011;47611;54.932;73.338;2022-10-16T07:25:59;19.13;;;8.73;;
60993;SDS011;47611;54.932;73.338;2022-10-16T07:28:30;17.23;;;8.98;;
60993;SDS011;47611;54.932;73.338;2022-10-16T07:31:16;20.80;;;10.60;;
60993;SDS011;47611;54.932;73.338;2022-10-16T07:33:43;16.70;;;7.80;;
60993;SDS011;47611;54.932;73.338;2022-10-16T07:36:11;15.27;;;7.97;;
60993;SDS011;47611;54.932;73.338;2022-10-16T07:38:38;18.10;;;8.38;;
60993;SDS011;47611;54.932;73.338;2022-10-16T07:41:05;18.40;;;9.05;;
60993;SDS011;47611;54.932;73.338;2022-10-16T07:43:39;18.65;;;9.63;;
60993;SDS011;47611;54.932;73.338;2022-10-16T07:46:06;17.60;;;9.27;;
60993;SDS011;47611;54.932;73.338;2022-10-16T07:48:33;23.63;;;9.48;;
60993;SDS011;47611;54.932;73.338;2022-10-16T07:51:00;17.83;;;9.02;;
60993;SDS011;47611;54.932;73.338;2022-10-16T07:53:28;21.27;;;10.32;;
60993;SDS011;47611;54.932;73.338;2022-10-16T07:56:03;20.25;;;9.57;;
60993;SDS011;47611;54.932;73.338;2022-10-16T07:58:32;16.50;;;8.93;;
60993;SDS011;47611;54.932;73.338;2022-10-16T08:01:05;31.45;;;15.20;;
60993;SDS011;47611;54.932;73.338;2022-10-16T08:03:35;22.20;;;11.07;;
60993;SDS011;47611;54.932;73.338;2022-10-16T08:06:02;15.70;;;8.55;;
60993;SDS011;47611;54.932;73.338;2022-10-16T08:08:29;17.85;;;8.60;;
60993;SDS011;47611;54.932;73.338;2022-10-16T08:10:56;17.60;;;9.52;;
60993;SDS011;47611;54.932;73.338;2022-10-16T08:13:22;17.75;;;9.15;;
60993;SDS011;47611;54.932;73.338;2022-10-16T08:15:48;18.40;;;8.43;;
60993;SDS011;47611;54.932;73.338;2022-10-16T08:18:15;16.95;;;8.23;;
60993;SDS011;47611;54.932;73.338;2022-10-16T08:20:42;15.70;;;8.43;;
60993;SDS011;47611;54.932;73.338;2022-10-16T08:23:18;16.60;;;8.15;;
60993;SDS011;47611;54.932;73.338;2022-10-16T08:25:45;19.20;;;8.65;;
60993;SDS011;47611;54.932;73.338;2022-10-16T08:28:11;18.40;;;9.60;;
60993;SDS011;47611;54.932;73.338;2022-10-16T08:30:46;25.13;;;11.90;;
60993;SDS011;47611;54.932;73.338;2022-10-16T08:33:12;27.00;;;12.18;;
60993;SDS011;47611;54.932;73.338;2022-10-16T08:35:39;27.13;;;12.20;;
60993;SDS011;47611;54.932;73.338;2022-10-16T08:38:06;24.50;;;11.75;;
60993;SDS011;47611;54.932;73.338;2022-10-16T08:40:33;30.67;;;13.35;;
60993;SDS011;47611;54.932;73.338;2022-10-16T08:43:09;43.60;;;17.50;;
60993;SDS011;47611;54.932;73.338;2022-10-16T08:49:17;30.60;;;13.38;;
60993;SDS011;47611;54.932;73.338;2022-10-16T08:51:44;23.27;;;12.77;;
60993;SDS011;47611;54.932;73.338;2022-10-16T08:54:16;23.33;;;10.90;;
60993;SDS011;47611;54.932;73.338;2022-10-16T08:57:17;19.65;;;9.27;;
60993;SDS011;47611;54.932;73.338;2022-10-16T08:59:46;22.77;;;9.77;;
60993;SDS011;47611;54.932;73.338;2022-10-16T09:02:34;19.70;;;9.05;;
60993;SDS011;47611;54.932;73.338;2022-10-16T09:05:25;17.02;;;9.05;;
60993;SDS011;47611;54.932;73.338;2022-10-16T09:14:01;19.10;;;9.77;;
60993;SDS011;47611;54.932;73.338;2022-10-16T09:17:01;19.60;;;9.55;;
60993;SDS011;47611;54.932;73.338;2022-10-16T09:19:55;27.15;;;10.60;;
60993;SDS011;47611;54.932;73.338;2022-10-16T09:22:37;20.63;;;10.30;;
60993;SDS011;47611;54.932;73.338;2022-10-16T09:25:13;22.40;;;11.45;;
60993;SDS011;47611;54.932;73.338;2022-10-16T09:30:33;22.40;;;11.80;;
60993;SDS011;47611;54.932;73.338;2022-10-16T09:33:01;26.35;;;12.77;;
60993;SDS011;47611;54.932;73.338;2022-10-16T09:35:32;19.88;;;11.00;;
60993;SDS011;47611;54.932;73.338;2022-10-16T09:38:01;24.10;;;11.45;;
60993;SDS011;47611;54.932;73.338;2022-10-16T09:40:28;25.67;;;12.52;;
60993;SDS011;47611;54.932;73.338;2022-10-16T09:43:03;32.58;;;14.50;;
60993;SDS011;47611;54.932;73.338;2022-10-16T09:45:52;32.37;;;14.43;;
60993;SDS011;47611;54.932;73.338;2022-10-16T09:48:44;33.47;;;13.48;;
60993;SDS011;47611;54.932;73.338;2022-10-16T09:51:33;31.08;;;13.25;;
60993;SDS011;47611;54.932;73.338;2022-10-16T09:56:48;25.55;;;13.88;;
60993;SDS011;47611;54.932;73.338;2022-10-16T09:59:18;20.75;;;11.30;;
60993;SDS011;47611;54.932;73.338;2022-10-16T10:01:49;19.10;;;10.52;;
60993;SDS011;47611;54.932;73.338;2022-10-16T10:04:18;17.08;;;9.57;;
60993;SDS011;47611;54.932;73.338;2022-10-16T10:06:49;17.23;;;9.63;;
60993;SDS011;47611;54.932;73.338;2022-10-16T10:09:21;16.48;;;9.23;;
60993;SDS011;47611;54.932;73.338;2022-10-16T10:11:59;15.68;;;8.68;;
60993;SDS011;47611;54.932;73.338;2022-10-16T10:14:30;21.48;;;10.25;;
60993;SDS011;47611;54.932;73.338;2022-10-16T10:30:15;22.63;;;11.70;;
60993;SDS011;47611;54.932;73.338;2022-10-16T10:33:03;27.83;;;13.73;;
60993;SDS011;47611;54.932;73.338;2022-10-16T10:35:44;29.95;;;13.63;;
60993;SDS011;47611;54.932;73.338;2022-10-16T10:38:49;28.25;;;11.85;;
60993;SDS011;47611;54.932;73.338;2022-10-16T10:50:14;33.45;;;13.48;;
60993;SDS011;47611;54.932;73.338;2022-10-16T10:52:53;43.67;;;18.75;;
60993;SDS011;47611;54.932;73.338;2022-10-16T11:09:10;37.78;;;18.55;;
60993;SDS011;47611;54.932;73.338;2022-10-16T11:14:35;42.13;;;22.65;;
60993;SDS011;47611;54.932;73.338;2022-10-16T11:17:23;35.75;;;17.45;;
60993;SDS011;47611;54.932;73.338;2022-10-16T11:19:54;44.22;;;20.00;;
60993;SDS011;47611;54.932;73.338;2022-10-16T11:30:47;51.42;;;23.90;;
60993;SDS011;47611;54.932;73.338;2022-10-16T11:38:35;47.17;;;20.73;;
60993;SDS011;47611;54.932;73.338;2022-10-16T11:41:13;62.73;;;23.30;;
60993;SDS011;47611;54.932;73.338;2022-10-16T11:46:25;105.18;;;45.90;;
60993;SDS011;47611;54.932;73.338;2022-10-16T11:49:10;80.18;;;40.08;;
60993;SDS011;47611;54.932;73.338;2022-10-16T11:51:48;85.60;;;39.35;;
60993;SDS011;47611;54.932;73.338;2022-10-16T11:54:28;73.50;;;32.63;;
60993;SDS011;47611;54.932;73.338;2022-10-16T11:59:58;81.28;;;31.63;;
60993;SDS011;47611;54.932;73.338;2022-10-16T12:10:39;136.02;;;51.50;;
60993;SDS011;47611;54.932;73.338;2022-10-16T12:18:49;160.15;;;64.28;;
60993;SDS011;47611;54.932;73.338;2022-10-16T12:21:31;75.15;;;33.97;;
60993;SDS011;47611;54.932;73.338;2022-10-16T12:23:58;100.72;;;40.05;;
60993;SDS011;47611;54.932;73.338;2022-10-16T12:26:31;98.68;;;44.35;;
60993;SDS011;47611;54.932;73.338;2022-10-16T12:29:21;108.82;;;42.95;;
60993;SDS011;47611;54.932;73.338;2022-10-16T12:31:52;128.07;;;48.40;;
60993;SDS011;47611;54.932;73.338;2022-10-16T12:37:13;103.50;;;41.17;;
60993;SDS011;47611;54.932;73.338;2022-10-16T12:39:39;102.60;;;41.43;;
60993;SDS011;47611;54.932;73.338;2022-10-16T12:42:20;234.18;;;71.43;;
60993;SDS011;47611;54.932;73.338;2022-10-16T12:44:46;207.82;;;65.65;;
60993;SDS011;47611;54.932;73.338;2022-10-16T12:53:21;51.00;;;23.13;;
60993;SDS011;47611;54.932;73.338;2022-10-16T12:56:09;58.15;;;27.35;;
60993;SDS011;47611;54.932;73.338;2022-10-16T13:04:17;100.20;;;47.88;;
60993;SDS011;47611;54.932;73.338;2022-10-16T13:07:11;109.88;;;50.45;;
60993;SDS011;47611;54.932;73.338;2022-10-16T13:18:22;51.67;;;24.95;;
60993;SDS011;47611;54.932;73.338;2022-10-16T13:26:27;70.95;;;37.15;;
60993;SDS011;47611;54.932;73.338;2022-10-16T13:29:10;66.25;;;30.70;;
60993;SDS011;47611;54.932;73.338;2022-10-16T13:31:38;69.55;;;32.20;;
60993;SDS011;47611;54.932;73.338;2022-10-16T13:34:05;80.80;;;36.03;;
60993;SDS011;47611;54.932;73.338;2022-10-16T13:36:49;81.18;;;38.40;;
60993;SDS011;47611;54.932;73.338;2022-10-16T13:39:22;74.88;;;35.28;;
60993;SDS011;47611;54.932;73.338;2022-10-16T13:44:48;110.13;;;42.10;;
60993;SDS011;47611;54.932;73.338;2022-10-16T13:47:26;125.22;;;45.95;;
60993;SDS011;47611;54.932;73.338;2022-10-16T13:50:04;121.65;;;47.08;;
60993;SDS011;47611;54.932;73.338;2022-10-16T13:52:41;124.78;;;48.30;;
60993;SDS011;47611;54.932;73.338;2022-10-16T13:55:15;129.85;;;49.42;;
60993;SDS011;47611;54.932;73.338;2022-10-16T13:57:43;123.38;;;47.97;;
60993;SDS011;47611;54.932;73.338;2022-10-16T14:00:17;123.68;;;49.40;;
60993;SDS011;47611;54.932;73.338;2022-10-16T14:03:04;131.23;;;48.75;;
60993;SDS011;47611;54.932;73.338;2022-10-16T14:06:12;137.50;;;50.30;;
60993;SDS011;47611;54.932;73.338;2022-10-16T14:08:36;126.47;;;48.20;;
60993;SDS011;47611;54.932;73.338;2022-10-16T14:13:45;133.18;;;51.03;;
60993;SDS011;47611;54.932;73.338;2022-10-16T14:16:22;85.88;;;36.90;;
60993;SDS011;47611;54.932;73.338;2022-10-16T14:19:02;119.65;;;45.42;;
60993;SDS011;47611;54.932;73.338;2022-10-16T14:21:46;117.43;;;45.13;;
60993;SDS011;47611;54.932;73.338;2022-10-16T14:24:13;126.55;;;49.80;;
60993;SDS011;47611;54.932;73.338;2022-10-16T14:26:48;169.77;;;48.15;;
60993;SDS011;47611;54.932;73.338;2022-10-16T14:29:17;297.70;;;109.63;;
60993;SDS011;47611;54.932;73.338;2022-10-16T14:31:55;193.55;;;82.85;;
60993;SDS011;47611;54.932;73.338;2022-10-16T14:34:28;126.78;;;48.10;;
60993;SDS011;47611;54.932;73.338;2022-10-16T14:37:01;97.18;;;42.28;;
60993;SDS011;47611;54.932;73.338;2022-10-16T14:39:53;103.00;;;39.28;;
60993;SDS011;47611;54.932;73.338;2022-10-16T14:42:21;95.85;;;41.58;;
60993;SDS011;47611;54.932;73.338;2022-10-16T14:44:50;88.18;;;39.03;;
60993;SDS011;47611;54.932;73.338;2022-10-16T14:47:19;81.43;;;36.33;;
60993;SDS011;47611;54.932;73.338;2022-10-16T14:49:50;95.30;;;39.42;;
60993;SDS011;47611;54.932;73.338;2022-10-16T14:52:18;94.70;;;38.40;;
60993;SDS011;47611;54.932;73.338;2022-10-16T14:54:48;87.60;;;36.72;;
60993;SDS011;47611;54.932;73.338;2022-10-16T14:57:18;98.30;;;40.45;;
60993;SDS011;47611;54.932;73.338;2022-10-16T14:59:47;105.72;;;45.53;;
60993;SDS011;47611;54.932;73.338;2022-10-16T15:02:25;129.30;;;49.45;;
60993;SDS011;47611;54.932;73.338;2022-10-16T15:04:55;127.20;;;52.55;;
60993;SDS011;47611;54.932;73.338;2022-10-16T15:07:22;194.65;;;71.00;;
60993;SDS011;47611;54.932;73.338;2022-10-16T15:09:48;164.30;;;64.55;;
60993;SDS011;47611;54.932;73.338;2022-10-16T15:12:25;150.43;;;59.38;;
60993;SDS011;47611;54.932;73.338;2022-10-16T15:14:51;159.80;;;63.10;;
60993;SDS011;47611;54.932;73.338;2022-10-16T15:17:22;151.48;;;58.72;;
60993;SDS011;47611;54.932;73.338;2022-10-16T15:19:49;125.25;;;51.08;;
60993;SDS011;47611;54.932;73.338;2022-10-16T15:22:16;111.78;;;49.88;;
60993;SDS011;47611;54.932;73.338;2022-10-16T15:24:43;109.55;;;47.08;;
60993;SDS011;47611;54.932;73.338;2022-10-16T15:27:09;111.95;;;46.25;;
60993;SDS011;47611;54.932;73.338;2022-10-16T15:29:35;124.60;;;57.55;;
60993;SDS011;47611;54.932;73.338;2022-10-16T15:32:01;131.52;;;55.17;;
60993;SDS011;47611;54.932;73.338;2022-10-16T15:34:28;140.63;;;59.13;;
60993;SDS011;47611;54.932;73.338;2022-10-16T15:36:54;143.82;;;58.53;;
60993;SDS011;47611;54.932;73.338;2022-10-16T15:39:22;114.93;;;52.55;;
60993;SDS011;47611;54.932;73.338;2022-10-16T15:41:48;143.50;;;54.72;;
60993;SDS011;47611;54.932;73.338;2022-10-16T15:44:16;121.65;;;51.45;;
60993;SDS011;47611;54.932;73.338;2022-10-16T15:46:54;126.72;;;51.45;;
60993;SDS011;47611;54.932;73.338;2022-10-16T15:49:20;112.13;;;48.72;;
60993;SDS011;47611;54.932;73.338;2022-10-16T15:51:46;103.80;;;47.58;;
60993;SDS011;47611;54.932;73.338;2022-10-16T15:54:12;119.53;;;46.75;;
60993;SDS011;47611;54.932;73.338;2022-10-16T15:56:39;116.43;;;48.47;;
60993;SDS011;47611;54.932;73.338;2022-10-16T15:59:05;103.70;;;43.35;;
60993;SDS011;47611;54.932;73.338;2022-10-16T16:01:36;91.63;;;41.15;;
60993;SDS011;47611;54.932;73.338;2022-10-16T16:04:02;72.72;;;36.33;;
60993;SDS011;47611;54.932;73.338;2022-10-16T16:06:30;84.28;;;38.22;;
60993;SDS011;47611;54.932;73.338;2022-10-16T16:08:56;98.07;;;43.03;;
60993;SDS011;47611;54.932;73.338;2022-10-16T16:11:25;111.55;;;45.35;;
60993;SDS011;47611;54.932;73.338;2022-10-16T16:13:51;123.55;;;50.63;;
60993;SDS011;47611;54.932;73.338;2022-10-16T16:16:17;119.38;;;48.70;;
60993;SDS011;47611;54.932;73.338;2022-10-16T16:18:45;92.63;;;37.75;;
60993;SDS011;47611;54.932;73.338;2022-10-16T16:21:21;97.78;;;37.75;;
60993;SDS011;47611;54.932;73.338;2022-10-16T16:23:47;94.82;;;39.10;;
60993;SDS011;47611;54.932;73.338;2022-10-16T16:28:42;94.20;;;37.80;;
60993;SDS011;47611;54.932;73.338;2022-10-16T16:31:09;92.05;;;38.88;;
60993;SDS011;47611;54.932;73.338;2022-10-16T16:33:35;82.90;;;36.55;;
60993;SDS011;47611;54.932;73.338;2022-10-16T16:36:03;69.32;;;30.83;;
60993;SDS011;47611;54.932;73.338;2022-10-16T16:38:31;76.72;;;31.15;;
60993;SDS011;47611;54.932;73.338;2022-10-16T16:40:58;74.90;;;32.38;;
60993;SDS011;47611;54.932;73.338;2022-10-16T16:43:25;78.07;;;32.17;;
60993;SDS011;47611;54.932;73.338;2022-10-16T16:45:53;70.55;;;30.00;;
60993;SDS011;47611;54.932;73.338;2022-10-16T16:48:24;66.40;;;30.02;;
60993;SDS011;47611;54.932;73.338;2022-10-16T16:50:50;66.25;;;30.38;;
60993;SDS011;47611;54.932;73.338;2022-10-16T16:53:26;70.03;;;29.58;;
60993;SDS011;47611;54.932;73.338;2022-10-16T16:55:52;71.78;;;30.63;;
60993;SDS011;47611;54.932;73.338;2022-10-16T16:58:19;67.22;;;31.25;;
60993;SDS011;47611;54.932;73.338;2022-10-16T17:00:45;67.35;;;30.23;;